sensor_id;sensor_type;location;lat;lon;timestamp;pressure;altitude;pressure_sealevel;temperature;humidity
35716;BME280;21840;44.920;8.616;2022-12-20T00:02:03;101995.03;;;8.50;49.21
35716;BME280;21840;44.920;8.616;2022-12-20T00:04:29;102003.59;;;8.54;48.86
35716;BME280;21840;44.920;8.616;2022-12-20T00:06:54;101996.69;;;8.18;50.00
35716;BME280;21840;44.920;8.616;2022-12-20T00:09:20;101987.84;;;8.20;50.36
35716;BME280;21840;44.920;8.616;2022-12-20T00:11:45;101995.56;;;8.57;49.33
35716;BME280;21840;44.920;8.616;2022-12-20T00:14:11;101990.44;;;8.20;49.89
35716;BME280;21840;44.920;8.616;2022-12-20T00:16:37;101991.03;;;7.92;49.97
35716;BME280;21840;44.920;8.616;2022-12-20T00:19:04;101982.84;;;8.16;50.08
35716;BME280;21840;44.920;8.616;2022-12-20T00:21:31;101980.09;;;8.19;50.11
35716;BME280;21840;44.920;8.616;2022-12-20T00:23:57;101984.59;;;8.33;49.44
35716;BME280;21840;44.920;8.616;2022-12-20T00:26:26;101983.91;;;8.47;49.24
35716;BME280;21840;44.920;8.616;2022-12-20T00:28:53;101974.28;;;8.30;49.50
35716;BME280;21840;44.920;8.616;2022-12-20T00:31:20;101974.25;;;8.14;49.88
35716;BME280;21840;44.920;8.616;2022-12-20T00:33:47;101977.97;;;8.26;49.37
35716;BME280;21840;44.920;8.616;2022-12-20T00:36:14;101976.34;;;8.40;49.59
35716;BME280;21840;44.920;8.616;2022-12-20T00:38:40;101973.28;;;8.32;49.55
35716;BME280;21840;44.920;8.616;2022-12-20T00:41:08;101983.00;;;8.13;50.13
35716;BME280;21840;44.920;8.616;2022-12-20T00:43:35;101972.31;;;8.00;50.64
35716;BME280;21840;44.920;8.616;2022-12-20T00:46:01;101977.94;;;7.92;50.71
35716;BME280;21840;44.920;8.616;2022-12-20T00:48:28;101974.94;;;7.48;51.30
35716;BME280;21840;44.920;8.616;2022-12-20T00:50:58;101972.25;;;8.02;50.49
35716;BME280;21840;44.920;8.616;2022-12-20T00:53:24;101975.78;;;8.00;50.70
35716;BME280;21840;44.920;8.616;2022-12-20T00:55:49;101970.31;;;8.05;50.17
35716;BME280;21840;44.920;8.616;2022-12-20T00:58:15;101964.34;;;8.36;49.74
35716;BME280;21840;44.920;8.616;2022-12-20T01:00:40;101961.16;;;8.14;49.96
35716;BME280;21840;44.920;8.616;2022-12-20T01:03:06;101952.50;;;8.29;49.51
35716;BME280;21840;44.920;8.616;2022-12-20T01:05:32;101948.94;;;7.97;50.45
35716;BME280;21840;44.920;8.616;2022-12-20T01:07:57;101945.63;;;7.93;50.21
35716;BME280;21840;44.920;8.616;2022-12-20T01:10:23;101948.06;;;8.14;49.76
35716;BME280;21840;44.920;8.616;2022-12-20T01:12:52;101949.41;;;8.21;49.71
35716;BME280;21840;44.920;8.616;2022-12-20T01:15:18;101948.50;;;7.89;50.75
35716;BME280;21840;44.920;8.616;2022-12-20T01:17:43;101939.06;;;8.35;49.59
35716;BME280;21840;44.920;8.616;2022-12-20T01:20:09;101942.97;;;7.60;50.54
35716;BME280;21840;44.920;8.616;2022-12-20T01:22:35;101943.63;;;7.64;50.81
35716;BME280;21840;44.920;8.616;2022-12-20T01:25:01;101946.28;;;8.14;50.08
35716;BME280;21840;44.920;8.616;2022-12-20T01:27:28;101951.31;;;8.35;49.63
35716;BME280;21840;44.920;8.616;2022-12-20T01:29:53;101946.94;;;8.35;49.51
35716;BME280;21840;44.920;8.616;2022-12-20T01:32:19;101947.00;;;7.83;49.76
35716;BME280;21840;44.920;8.616;2022-12-20T01:34:45;101947.78;;;7.85;50.42
35716;BME280;21840;44.920;8.616;2022-12-20T01:37:10;101933.94;;;7.66;51.08
35716;BME280;21840;44.920;8.616;2022-12-20T01:39:36;101941.44;;;8.24;49.72
35716;BME280;21840;44.920;8.616;2022-12-20T01:42:02;101935.09;;;7.43;50.62
35716;BME280;21840;44.920;8.616;2022-12-20T01:46:53;101942.72;;;7.47;51.54
35716;BME280;21840;44.920;8.616;2022-12-20T01:49:52;101932.25;;;7.99;50.50
35716;BME280;21840;44.920;8.616;2022-12-20T01:52:31;101932.63;;;7.92;50.26
35716;BME280;21840;44.920;8.616;2022-12-20T01:55:17;101929.94;;;7.93;50.24
35716;BME280;21840;44.920;8.616;2022-12-20T01:57:48;101926.97;;;7.49;51.02
35716;BME280;21840;44.920;8.616;2022-12-20T02:00:16;101929.59;;;7.66;50.64
35716;BME280;21840;44.920;8.616;2022-12-20T02:02:44;101932.03;;;7.52;50.84
35716;BME280;21840;44.920;8.616;2022-12-20T02:05:11;101928.56;;;7.17;50.88
35716;BME280;21840;44.920;8.616;2022-12-20T02:07:40;101921.03;;;7.28;50.95
35716;BME280;21840;44.920;8.616;2022-12-20T02:10:09;101929.66;;;7.65;50.80
35716;BME280;21840;44.920;8.616;2022-12-20T02:12:41;101931.16;;;7.17;51.49
35716;BME280;21840;44.920;8.616;2022-12-20T02:20:36;101918.13;;;7.69;50.94
35716;BME280;21840;44.920;8.616;2022-12-20T02:25:49;101921.44;;;8.06;50.08
35716;BME280;21840;44.920;8.616;2022-12-20T02:28:44;101911.63;;;7.93;49.71
35716;BME280;21840;44.920;8.616;2022-12-20T02:31:18;101908.31;;;8.23;48.95
35716;BME280;21840;44.920;8.616;2022-12-20T02:33:46;101914.22;;;7.93;49.20
35716;BME280;21840;44.920;8.616;2022-12-20T02:36:15;101907.03;;;7.64;50.13
35716;BME280;21840;44.920;8.616;2022-12-20T02:38:42;101898.44;;;7.79;50.00
35716;BME280;21840;44.920;8.616;2022-12-20T02:41:20;101897.66;;;7.42;50.12
35716;BME280;21840;44.920;8.616;2022-12-20T02:43:53;101903.09;;;7.20;51.00
35716;BME280;21840;44.920;8.616;2022-12-20T02:46:38;101906.56;;;7.73;50.24
35716;BME280;21840;44.920;8.616;2022-12-20T02:49:09;101900.16;;;7.78;50.00
35716;BME280;21840;44.920;8.616;2022-12-20T02:51:37;101902.44;;;7.69;50.16
35716;BME280;21840;44.920;8.616;2022-12-20T02:54:03;101904.66;;;6.88;51.39
35716;BME280;21840;44.920;8.616;2022-12-20T02:56:37;101895.09;;;7.06;51.66
35716;BME280;21840;44.920;8.616;2022-12-20T02:59:12;101895.06;;;7.60;50.92
35716;BME280;21840;44.920;8.616;2022-12-20T03:01:46;101898.13;;;7.33;50.60
35716;BME280;21840;44.920;8.616;2022-12-20T03:04:13;101890.09;;;7.88;50.28
35716;BME280;21840;44.920;8.616;2022-12-20T03:07:08;101883.91;;;8.07;49.39
35716;BME280;21840;44.920;8.616;2022-12-20T03:09:36;101887.81;;;7.82;49.56
35716;BME280;21840;44.920;8.616;2022-12-20T03:12:02;101888.50;;;8.19;49.20
35716;BME280;21840;44.920;8.616;2022-12-20T03:14:31;101894.56;;;8.19;49.07
35716;BME280;21840;44.920;8.616;2022-12-20T03:16:59;101892.97;;;8.17;48.59
35716;BME280;21840;44.920;8.616;2022-12-20T03:19:24;101893.94;;;7.81;49.46
35716;BME280;21840;44.920;8.616;2022-12-20T03:21:50;101886.97;;;8.15;49.22
35716;BME280;21840;44.920;8.616;2022-12-20T03:24:16;101885.88;;;8.19;49.04
35716;BME280;21840;44.920;8.616;2022-12-20T03:26:42;101887.03;;;8.13;49.05
35716;BME280;21840;44.920;8.616;2022-12-20T03:29:08;101883.53;;;7.97;49.20
35716;BME280;21840;44.920;8.616;2022-12-20T03:31:34;101874.34;;;8.06;49.07
35716;BME280;21840;44.920;8.616;2022-12-20T03:34:00;101877.53;;;7.95;49.24
35716;BME280;21840;44.920;8.616;2022-12-20T03:36:26;101875.81;;;8.11;48.81
35716;BME280;21840;44.920;8.616;2022-12-20T03:38:58;101877.66;;;7.41;50.18
35716;BME280;21840;44.920;8.616;2022-12-20T03:41:26;101873.69;;;7.69;50.49
35716;BME280;21840;44.920;8.616;2022-12-20T03:43:52;101869.16;;;7.88;49.95
35716;BME280;21840;44.920;8.616;2022-12-20T03:46:19;101866.47;;;7.90;49.86
35716;BME280;21840;44.920;8.616;2022-12-20T03:48:45;101870.06;;;8.05;49.62
35716;BME280;21840;44.920;8.616;2022-12-20T03:51:11;101865.59;;;8.07;49.41
35716;BME280;21840;44.920;8.616;2022-12-20T03:53:37;101866.38;;;8.09;49.39
35716;BME280;21840;44.920;8.616;2022-12-20T03:56:02;101855.44;;;8.00;49.38
35716;BME280;21840;44.920;8.616;2022-12-20T03:58:28;101864.19;;;8.17;49.27
35716;BME280;21840;44.920;8.616;2022-12-20T04:00:55;101854.88;;;8.11;49.46
35716;BME280;21840;44.920;8.616;2022-12-20T04:03:47;101851.47;;;7.93;49.78
35716;BME280;21840;44.920;8.616;2022-12-20T04:06:14;101860.13;;;8.11;49.62
35716;BME280;21840;44.920;8.616;2022-12-20T04:08:40;101859.03;;;7.82;50.17
35716;BME280;21840;44.920;8.616;2022-12-20T04:11:07;101859.56;;;7.89;50.06
35716;BME280;21840;44.920;8.616;2022-12-20T04:14:10;101845.84;;;7.84;49.84
35716;BME280;21840;44.920;8.616;2022-12-20T04:16:37;101843.41;;;8.14;49.71
35716;BME280;21840;44.920;8.616;2022-12-20T04:19:03;101832.00;;;8.31;48.92
35716;BME280;21840;44.920;8.616;2022-12-20T04:21:35;101835.69;;;8.44;48.76
35716;BME280;21840;44.920;8.616;2022-12-20T04:24:03;101831.47;;;8.41;48.77
35716;BME280;21840;44.920;8.616;2022-12-20T04:26:55;101832.00;;;8.31;49.16
35716;BME280;21840;44.920;8.616;2022-12-20T04:29:21;101828.81;;;8.26;48.83
35716;BME280;21840;44.920;8.616;2022-12-20T04:31:48;101828.03;;;8.24;49.51
35716;BME280;21840;44.920;8.616;2022-12-20T04:34:14;101822.19;;;8.52;48.62
35716;BME280;21840;44.920;8.616;2022-12-20T04:36:39;101826.59;;;8.18;49.33
35716;BME280;21840;44.920;8.616;2022-12-20T04:39:10;101822.66;;;8.27;48.92
35716;BME280;21840;44.920;8.616;2022-12-20T04:41:55;101829.16;;;8.19;49.01
35716;BME280;21840;44.920;8.616;2022-12-20T04:44:20;101822.69;;;7.93;49.60
35716;BME280;21840;44.920;8.616;2022-12-20T04:46:45;101819.09;;;8.12;49.24
35716;BME280;21840;44.920;8.616;2022-12-20T04:49:14;101818.94;;;8.15;49.16
35716;BME280;21840;44.920;8.616;2022-12-20T04:51:43;101812.66;;;8.33;48.63
35716;BME280;21840;44.920;8.616;2022-12-20T04:54:10;101815.22;;;8.19;49.11
35716;BME280;21840;44.920;8.616;2022-12-20T04:56:42;101817.31;;;8.28;49.18
35716;BME280;21840;44.920;8.616;2022-12-20T04:59:09;101813.53;;;8.34;48.55
35716;BME280;21840;44.920;8.616;2022-12-20T05:01:40;101823.06;;;8.19;48.91
35716;BME280;21840;44.920;8.616;2022-12-20T05:04:06;101819.09;;;8.28;48.85
35716;BME280;21840;44.920;8.616;2022-12-20T05:06:35;101819.44;;;8.21;48.74
35716;BME280;21840;44.920;8.616;2022-12-20T05:09:01;101815.72;;;8.10;48.51
35716;BME280;21840;44.920;8.616;2022-12-20T05:11:27;101812.16;;;7.95;48.87
35716;BME280;21840;44.920;8.616;2022-12-20T05:13:56;101813.34;;;8.05;48.97
35716;BME280;21840;44.920;8.616;2022-12-20T05:16:21;101807.78;;;7.62;49.34
35716;BME280;21840;44.920;8.616;2022-12-20T05:18:47;101805.13;;;7.80;49.53
35716;BME280;21840;44.920;8.616;2022-12-20T05:21:14;101806.13;;;7.77;49.17
35716;BME280;21840;44.920;8.616;2022-12-20T05:23:58;101809.78;;;7.90;48.69
35716;BME280;21840;44.920;8.616;2022-12-20T05:26:59;101817.63;;;7.90;48.94
35716;BME280;21840;44.920;8.616;2022-12-20T05:29:27;101824.59;;;7.74;49.06
35716;BME280;21840;44.920;8.616;2022-12-20T05:31:53;101820.22;;;7.06;50.28
35716;BME280;21840;44.920;8.616;2022-12-20T05:34:20;101815.09;;;7.55;49.23
35716;BME280;21840;44.920;8.616;2022-12-20T05:36:50;101825.28;;;7.77;49.29
35716;BME280;21840;44.920;8.616;2022-12-20T05:39:18;101817.22;;;7.98;48.77
35716;BME280;21840;44.920;8.616;2022-12-20T05:41:45;101818.50;;;8.07;48.38
35716;BME280;21840;44.920;8.616;2022-12-20T05:44:11;101823.72;;;7.40;49.65
35716;BME280;21840;44.920;8.616;2022-12-20T05:46:40;101807.44;;;7.68;49.03
35716;BME280;21840;44.920;8.616;2022-12-20T05:49:11;101807.94;;;7.59;49.46
35716;BME280;21840;44.920;8.616;2022-12-20T05:51:36;101816.28;;;7.66;49.70
35716;BME280;21840;44.920;8.616;2022-12-20T05:54:15;101805.81;;;7.50;50.09
35716;BME280;21840;44.920;8.616;2022-12-20T05:56:47;101807.84;;;7.61;49.62
35716;BME280;21840;44.920;8.616;2022-12-20T05:59:18;101808.28;;;7.86;48.90
35716;BME280;21840;44.920;8.616;2022-12-20T06:01:45;101808.47;;;7.48;49.92
35716;BME280;21840;44.920;8.616;2022-12-20T06:04:10;101813.13;;;7.26;50.05
35716;BME280;21840;44.920;8.616;2022-12-20T06:06:39;101805.44;;;7.73;49.34
35716;BME280;21840;44.920;8.616;2022-12-20T06:09:06;101803.88;;;8.03;48.83
35716;BME280;21840;44.920;8.616;2022-12-20T06:11:41;101805.44;;;8.07;48.83
35716;BME280;21840;44.920;8.616;2022-12-20T06:14:09;101798.97;;;7.47;49.13
35716;BME280;21840;44.920;8.616;2022-12-20T06:16:39;101817.22;;;7.31;50.44
35716;BME280;21840;44.920;8.616;2022-12-20T06:19:07;101824.00;;;6.64;51.31
35716;BME280;21840;44.920;8.616;2022-12-20T06:21:34;101820.13;;;7.25;51.11
35716;BME280;21840;44.920;8.616;2022-12-20T06:24:00;101809.94;;;7.71;49.86
35716;BME280;21840;44.920;8.616;2022-12-20T06:26:29;101802.25;;;7.51;49.49
35716;BME280;21840;44.920;8.616;2022-12-20T06:29:04;101809.44;;;7.30;50.23
35716;BME280;21840;44.920;8.616;2022-12-20T06:31:46;101801.81;;;7.76;49.84
35716;BME280;21840;44.920;8.616;2022-12-20T06:34:12;101808.13;;;7.21;50.62
35716;BME280;21840;44.920;8.616;2022-12-20T06:36:40;101808.50;;;7.13;50.76
35716;BME280;21840;44.920;8.616;2022-12-20T06:39:08;101807.66;;;7.48;50.00
35716;BME280;21840;44.920;8.616;2022-12-20T06:41:36;101812.91;;;7.64;50.04
35716;BME280;21840;44.920;8.616;2022-12-20T06:44:02;101806.63;;;7.84;49.73
35716;BME280;21840;44.920;8.616;2022-12-20T06:46:28;101807.63;;;7.81;49.75
35716;BME280;21840;44.920;8.616;2022-12-20T06:48:55;101800.94;;;7.60;49.84
35716;BME280;21840;44.920;8.616;2022-12-20T06:51:24;101803.38;;;7.29;50.40
35716;BME280;21840;44.920;8.616;2022-12-20T06:53:50;101806.19;;;7.42;50.73
35716;BME280;21840;44.920;8.616;2022-12-20T06:56:15;101810.88;;;7.86;49.49
35716;BME280;21840;44.920;8.616;2022-12-20T06:58:41;101806.22;;;7.25;50.13
35716;BME280;21840;44.920;8.616;2022-12-20T07:01:07;101801.38;;;7.68;49.66
35716;BME280;21840;44.920;8.616;2022-12-20T07:03:32;101802.59;;;7.78;49.62
35716;BME280;21840;44.920;8.616;2022-12-20T07:05:58;101793.28;;;7.56;49.61
35716;BME280;21840;44.920;8.616;2022-12-20T07:08:24;101794.47;;;7.67;49.26
35716;BME280;21840;44.920;8.616;2022-12-20T07:10:50;101795.78;;;7.91;48.93
35716;BME280;21840;44.920;8.616;2022-12-20T07:13:17;101792.59;;;7.86;49.01
35716;BME280;21840;44.920;8.616;2022-12-20T07:15:43;101796.03;;;7.53;49.27
35716;BME280;21840;44.920;8.616;2022-12-20T07:18:09;101793.84;;;7.95;48.50
35716;BME280;21840;44.920;8.616;2022-12-20T07:20:35;101796.03;;;8.18;48.03
35716;BME280;21840;44.920;8.616;2022-12-20T07:23:01;101798.41;;;8.23;47.75
35716;BME280;21840;44.920;8.616;2022-12-20T07:25:27;101809.94;;;7.71;48.75
35716;BME280;21840;44.920;8.616;2022-12-20T07:27:52;101816.44;;;7.29;49.61
35716;BME280;21840;44.920;8.616;2022-12-20T07:30:18;101811.22;;;7.63;48.98
35716;BME280;21840;44.920;8.616;2022-12-20T07:32:45;101807.69;;;7.64;49.13
35716;BME280;21840;44.920;8.616;2022-12-20T07:35:12;101809.94;;;7.87;48.23
35716;BME280;21840;44.920;8.616;2022-12-20T07:37:38;101806.03;;;7.45;49.19
35716;BME280;21840;44.920;8.616;2022-12-20T07:40:04;101801.50;;;7.98;48.37
35716;BME280;21840;44.920;8.616;2022-12-20T07:42:30;101793.28;;;7.56;48.24
35716;BME280;21840;44.920;8.616;2022-12-20T07:44:56;101799.72;;;7.83;47.76
35716;BME280;21840;44.920;8.616;2022-12-20T07:47:21;101798.28;;;7.77;47.94
35716;BME280;21840;44.920;8.616;2022-12-20T07:49:47;101808.34;;;7.85;47.90
35716;BME280;21840;44.920;8.616;2022-12-20T07:52:14;101797.81;;;7.86;47.95
35716;BME280;21840;44.920;8.616;2022-12-20T07:54:48;101807.28;;;7.21;48.83
35716;BME280;21840;44.920;8.616;2022-12-20T07:57:22;101817.38;;;7.79;48.36
35716;BME280;21840;44.920;8.616;2022-12-20T07:59:53;101819.44;;;7.39;48.35
35716;BME280;21840;44.920;8.616;2022-12-20T08:02:25;101815.34;;;7.33;48.66
35716;BME280;21840;44.920;8.616;2022-12-20T08:04:52;101821.66;;;6.95;49.60
35716;BME280;21840;44.920;8.616;2022-12-20T08:07:19;101815.50;;;7.30;49.02
35716;BME280;21840;44.920;8.616;2022-12-20T08:09:45;101818.09;;;7.48;49.27
35716;BME280;21840;44.920;8.616;2022-12-20T08:12:13;101816.44;;;7.80;48.52
35716;BME280;21840;44.920;8.616;2022-12-20T08:14:40;101828.41;;;7.33;49.53
35716;BME280;21840;44.920;8.616;2022-12-20T08:17:06;101813.81;;;7.29;49.72
35716;BME280;21840;44.920;8.616;2022-12-20T08:19:31;101810.44;;;7.27;49.52
35716;BME280;21840;44.920;8.616;2022-12-20T08:22:06;101807.97;;;8.24;47.91
35716;BME280;21840;44.920;8.616;2022-12-20T08:24:32;101805.25;;;8.26;47.88
35716;BME280;21840;44.920;8.616;2022-12-20T08:26:58;101801.69;;;8.74;46.97
35716;BME280;21840;44.920;8.616;2022-12-20T08:29:24;101806.66;;;8.49;47.46
35716;BME280;21840;44.920;8.616;2022-12-20T08:31:50;101810.84;;;8.67;47.09
35716;BME280;21840;44.920;8.616;2022-12-20T08:34:15;101806.41;;;8.83;46.63
35716;BME280;21840;44.920;8.616;2022-12-20T08:36:40;101816.06;;;8.35;47.16
35716;BME280;21840;44.920;8.616;2022-12-20T08:39:06;101810.91;;;8.81;46.51
35716;BME280;21840;44.920;8.616;2022-12-20T08:41:35;101808.72;;;8.58;47.21
35716;BME280;21840;44.920;8.616;2022-12-20T08:44:04;101826.59;;;8.18;48.11
35716;BME280;21840;44.920;8.616;2022-12-20T08:46:30;101818.28;;;8.43;47.62
35716;BME280;21840;44.920;8.616;2022-12-20T08:48:55;101819.13;;;8.43;47.76
35716;BME280;21840;44.920;8.616;2022-12-20T08:51:21;101815.78;;;9.18;46.34
35716;BME280;21840;44.920;8.616;2022-12-20T08:53:46;101808.06;;;9.00;46.54
35716;BME280;21840;44.920;8.616;2022-12-20T08:56:16;101806.25;;;8.87;46.23
35716;BME280;21840;44.920;8.616;2022-12-20T08:58:42;101805.03;;;8.62;46.95
35716;BME280;21840;44.920;8.616;2022-12-20T09:01:11;101808.94;;;8.85;46.21
35716;BME280;21840;44.920;8.616;2022-12-20T09:03:38;101812.34;;;8.24;47.67
35716;BME280;21840;44.920;8.616;2022-12-20T09:06:06;101810.91;;;8.81;47.01
35716;BME280;21840;44.920;8.616;2022-12-20T09:08:37;101818.19;;;9.06;46.63
35716;BME280;21840;44.920;8.616;2022-12-20T09:11:05;101801.72;;;8.58;46.99
35716;BME280;21840;44.920;8.616;2022-12-20T09:13:31;101803.50;;;8.58;47.29
35716;BME280;21840;44.920;8.616;2022-12-20T09:15:59;101806.50;;;8.66;47.36
35716;BME280;21840;44.920;8.616;2022-12-20T09:18:25;101801.66;;;8.90;46.52
35716;BME280;21840;44.920;8.616;2022-12-20T09:20:50;101808.50;;;8.93;46.97
35716;BME280;21840;44.920;8.616;2022-12-20T09:23:16;101819.41;;;8.85;47.05
35716;BME280;21840;44.920;8.616;2022-12-20T09:25:41;101813.72;;;9.23;46.25
35716;BME280;21840;44.920;8.616;2022-12-20T09:28:07;101801.78;;;9.47;45.76
35716;BME280;21840;44.920;8.616;2022-12-20T09:30:32;101803.72;;;9.29;46.37
35716;BME280;21840;44.920;8.616;2022-12-20T09:32:58;101814.22;;;9.29;46.26
35716;BME280;21840;44.920;8.616;2022-12-20T09:35:23;101809.66;;;9.47;46.35
35716;BME280;21840;44.920;8.616;2022-12-20T09:37:49;101816.97;;;9.57;46.33
35716;BME280;21840;44.920;8.616;2022-12-20T09:40:19;101808.94;;;9.74;45.50
35716;BME280;21840;44.920;8.616;2022-12-20T09:42:48;101804.31;;;9.63;45.76
35716;BME280;21840;44.920;8.616;2022-12-20T09:45:26;101804.22;;;9.79;45.62
35716;BME280;21840;44.920;8.616;2022-12-20T09:47:52;101796.53;;;10.05;44.88
35716;BME280;21840;44.920;8.616;2022-12-20T09:50:20;101802.06;;;9.57;45.53
35716;BME280;21840;44.920;8.616;2022-12-20T09:55:32;101805.25;;;9.34;46.04
35716;BME280;21840;44.920;8.616;2022-12-20T10:00:35;101810.47;;;10.05;45.19
35716;BME280;21840;44.920;8.616;2022-12-20T10:03:04;101800.09;;;9.89;45.12
35716;BME280;21840;44.920;8.616;2022-12-20T10:05:50;101806.84;;;9.79;44.26
35716;BME280;21840;44.920;8.616;2022-12-20T10:16:27;101785.88;;;9.93;44.47
35716;BME280;21840;44.920;8.616;2022-12-20T10:24:37;101778.47;;;10.27;43.58
35716;BME280;21840;44.920;8.616;2022-12-20T10:27:13;101768.06;;;9.56;44.81
35716;BME280;21840;44.920;8.616;2022-12-20T10:29:39;101763.91;;;10.09;44.34
35716;BME280;21840;44.920;8.616;2022-12-20T10:32:12;101763.78;;;10.10;43.94
35716;BME280;21840;44.920;8.616;2022-12-20T10:34:39;101762.06;;;10.38;43.77
35716;BME280;21840;44.920;8.616;2022-12-20T10:37:12;101755.69;;;10.82;43.01
35716;BME280;21840;44.920;8.616;2022-12-20T10:39:40;101741.41;;;10.86;42.62
35716;BME280;21840;44.920;8.616;2022-12-20T10:42:23;101750.78;;;11.16;42.10
35716;BME280;21840;44.920;8.616;2022-12-20T10:44:49;101742.47;;;9.88;44.06
35716;BME280;21840;44.920;8.616;2022-12-20T10:47:42;101730.88;;;10.19;43.84
35716;BME280;21840;44.920;8.616;2022-12-20T10:50:20;101731.47;;;9.96;44.02
35716;BME280;21840;44.920;8.616;2022-12-20T10:55:36;101712.13;;;9.84;43.90
35716;BME280;21840;44.920;8.616;2022-12-20T10:58:04;101725.25;;;9.69;44.77
35716;BME280;21840;44.920;8.616;2022-12-20T11:00:31;101724.59;;;10.49;43.47
35716;BME280;21840;44.920;8.616;2022-12-20T11:03:04;101734.13;;;10.37;43.46
35716;BME280;21840;44.920;8.616;2022-12-20T11:05:29;101724.59;;;10.22;44.21
35716;BME280;21840;44.920;8.616;2022-12-20T11:08:06;101731.50;;;10.77;43.14
35716;BME280;21840;44.920;8.616;2022-12-20T11:10:31;101735.41;;;10.84;43.05
35716;BME280;21840;44.920;8.616;2022-12-20T11:12:58;101732.09;;;10.28;43.70
35716;BME280;21840;44.920;8.616;2022-12-20T11:15:29;101728.88;;;10.37;43.85
35716;BME280;21840;44.920;8.616;2022-12-20T11:18:31;101716.56;;;9.69;44.77
35716;BME280;21840;44.920;8.616;2022-12-20T11:21:28;101716.63;;;10.63;43.66
35716;BME280;21840;44.920;8.616;2022-12-20T11:24:13;101710.06;;;10.83;43.06
35716;BME280;21840;44.920;8.616;2022-12-20T11:26:53;101703.56;;;11.01;42.97
35716;BME280;21840;44.920;8.616;2022-12-20T11:32:35;101690.00;;;11.70;41.63
35716;BME280;21840;44.920;8.616;2022-12-20T11:35:23;101686.75;;;11.17;42.33
35716;BME280;21840;44.920;8.616;2022-12-20T11:41:09;101667.16;;;11.34;41.93
35716;BME280;21840;44.920;8.616;2022-12-20T11:49:04;101651.34;;;11.83;41.12
35716;BME280;21840;44.920;8.616;2022-12-20T11:51:47;101639.66;;;11.87;41.11
35716;BME280;21840;44.920;8.616;2022-12-20T11:54:25;101641.38;;;11.39;41.71
35716;BME280;21840;44.920;8.616;2022-12-20T11:56:58;101639.72;;;11.25;42.39
35716;BME280;21840;44.920;8.616;2022-12-20T12:02:02;101622.28;;;11.48;42.65
35716;BME280;21840;44.920;8.616;2022-12-20T12:04:33;101621.97;;;11.90;42.31
35716;BME280;21840;44.920;8.616;2022-12-20T12:07:03;101624.53;;;12.02;41.74
35716;BME280;21840;44.920;8.616;2022-12-20T12:12:37;101609.66;;;11.77;42.10
35716;BME280;21840;44.920;8.616;2022-12-20T12:26:31;101609.38;;;12.06;41.59
35716;BME280;21840;44.920;8.616;2022-12-20T12:28:59;101609.31;;;11.95;41.83
35716;BME280;21840;44.920;8.616;2022-12-20T12:31:35;101601.16;;;11.86;41.76
35716;BME280;21840;44.920;8.616;2022-12-20T12:42:05;101578.25;;;11.63;42.45
35716;BME280;21840;44.920;8.616;2022-12-20T12:44:50;101588.97;;;11.49;42.58
35716;BME280;21840;44.920;8.616;2022-12-20T12:47:20;101588.19;;;11.59;42.85
35716;BME280;21840;44.920;8.616;2022-12-20T12:49:49;101578.47;;;11.60;42.99
35716;BME280;21840;44.920;8.616;2022-12-20T12:52:28;101582.06;;;11.96;42.68
35716;BME280;21840;44.920;8.616;2022-12-20T12:54:59;101581.09;;;11.97;42.37
35716;BME280;21840;44.920;8.616;2022-12-20T12:57:24;101575.97;;;11.58;42.92
35716;BME280;21840;44.920;8.616;2022-12-20T12:59:50;101574.50;;;12.02;42.41
35716;BME280;21840;44.920;8.616;2022-12-20T13:07:45;101561.88;;;11.83;43.25
35716;BME280;21840;44.920;8.616;2022-12-20T13:17:53;101556.78;;;11.69;44.05
35716;BME280;21840;44.920;8.616;2022-12-20T13:20:30;101548.44;;;11.99;43.38
35716;BME280;21840;44.920;8.616;2022-12-20T13:25:41;101540.78;;;12.07;43.57
35716;BME280;21840;44.920;8.616;2022-12-20T13:43:48;101539.41;;;11.66;45.09
35716;BME280;21840;44.920;8.616;2022-12-20T13:46:39;101536.84;;;11.54;45.43
35716;BME280;21840;44.920;8.616;2022-12-20T13:49:10;101530.63;;;11.55;45.05
35716;BME280;21840;44.920;8.616;2022-12-20T13:51:36;101526.28;;;12.02;44.48
35716;BME280;21840;44.920;8.616;2022-12-20T13:54:05;101516.34;;;11.70;44.76
35716;BME280;21840;44.920;8.616;2022-12-20T13:56:41;101516.47;;;11.44;45.88
35716;BME280;21840;44.920;8.616;2022-12-20T13:59:23;101509.53;;;11.19;46.23
35716;BME280;21840;44.920;8.616;2022-12-20T14:01:53;101504.38;;;11.66;45.40
35716;BME280;21840;44.920;8.616;2022-12-20T14:04:20;101499.22;;;11.40;46.01
35716;BME280;21840;44.920;8.616;2022-12-20T14:06:54;101486.47;;;11.71;45.64
35716;BME280;21840;44.920;8.616;2022-12-20T14:09:36;101488.66;;;11.53;45.56
35716;BME280;21840;44.920;8.616;2022-12-20T14:12:20;101487.34;;;11.23;45.94
35716;BME280;21840;44.920;8.616;2022-12-20T14:14:48;101495.81;;;11.51;45.59
35716;BME280;21840;44.920;8.616;2022-12-20T14:17:16;101490.81;;;11.83;44.97
35716;BME280;21840;44.920;8.616;2022-12-20T14:19:42;101494.13;;;11.98;44.71
35716;BME280;21840;44.920;8.616;2022-12-20T14:22:10;101487.88;;;11.99;45.15
35716;BME280;21840;44.920;8.616;2022-12-20T14:24:39;101490.75;;;12.07;44.54
35716;BME280;21840;44.920;8.616;2022-12-20T14:27:10;101487.78;;;12.01;44.50
35716;BME280;21840;44.920;8.616;2022-12-20T14:29:38;101479.88;;;12.12;44.60
35716;BME280;21840;44.920;8.616;2022-12-20T14:32:04;101475.34;;;11.79;45.78
35716;BME280;21840;44.920;8.616;2022-12-20T14:34:31;101472.19;;;11.62;45.36
35716;BME280;21840;44.920;8.616;2022-12-20T14:37:25;101477.91;;;11.32;45.86
35716;BME280;21840;44.920;8.616;2022-12-20T14:40:14;101481.56;;;11.18;46.58
35716;BME280;21840;44.920;8.616;2022-12-20T14:42:40;101478.09;;;11.42;45.89
35716;BME280;21840;44.920;8.616;2022-12-20T14:47:35;101491.31;;;11.53;45.61
35716;BME280;21840;44.920;8.616;2022-12-20T14:50:16;101477.59;;;11.96;44.42
35716;BME280;21840;44.920;8.616;2022-12-20T14:52:43;101485.47;;;11.37;45.19
35716;BME280;21840;44.920;8.616;2022-12-20T14:55:19;101496.59;;;11.64;44.57